createdAt,value
2023-05-15T00:00:02.273Z,9.07
2023-05-15T00:02:29.623Z,11.98
2023-05-15T00:04:56.762Z,9.93
2023-05-15T00:07:25.546Z,8.57
2023-05-15T00:09:52.617Z,8.93
2023-05-15T00:12:19.731Z,11.05
2023-05-15T00:14:46.929Z,8.27
2023-05-15T00:17:14.128Z,8.40
2023-05-15T00:19:41.376Z,7.35
2023-05-15T00:22:08.844Z,6.40
2023-05-15T00:24:36.020Z,5.40
2023-05-15T00:27:03.263Z,5.63
2023-05-15T00:29:30.670Z,5.32
2023-05-15T00:31:57.941Z,5.55
2023-05-15T00:34:25.485Z,4.20
2023-05-15T00:36:52.697Z,3.60
2023-05-15T00:39:19.924Z,4.28
2023-05-15T00:41:48.575Z,5.13
2023-05-15T00:44:20.288Z,4.22
2023-05-15T00:46:48.911Z,2.72
2023-05-15T00:49:18.666Z,2.08
2023-05-15T00:51:45.884Z,2.28
2023-05-15T00:54:13.182Z,1.63
2023-05-15T00:56:42.850Z,1.17
2023-05-15T00:59:11.355Z,2.50
2023-05-15T01:01:38.514Z,3.10
2023-05-15T01:04:05.914Z,3.78
2023-05-15T01:06:33.390Z,4.95
2023-05-15T01:09:10.114Z,6.57
2023-05-15T01:11:39.649Z,3.97
2023-05-15T01:14:09.323Z,4.10
2023-05-15T01:16:36.921Z,4.70
2023-05-15T01:19:05.446Z,4.82
2023-05-15T01:21:36.437Z,3.72
2023-05-15T01:24:34.324Z,3.65
2023-05-15T01:27:11.669Z,4.57
2023-05-15T01:29:44.430Z,3.60
2023-05-15T01:35:05.491Z,3.75
2023-05-15T01:37:35.811Z,4.22
2023-05-15T01:40:07.523Z,5.05
2023-05-15T01:42:36.785Z,4.68
2023-05-15T01:45:11.328Z,3.63
2023-05-15T01:47:45.466Z,3.45
2023-05-15T01:50:15.871Z,1.90
2023-05-15T01:52:48.119Z,3.15
2023-05-15T01:55:16.426Z,2.85
2023-05-15T01:57:45.642Z,1.98
2023-05-15T02:00:14.058Z,2.38
2023-05-15T02:02:43.380Z,1.50
2023-05-15T02:05:11.364Z,2.30
2023-05-15T02:07:38.932Z,1.67
2023-05-15T02:10:06.890Z,1.48
2023-05-15T02:12:34.893Z,1.58
2023-05-15T02:15:04.420Z,1.55
2023-05-15T02:17:32.537Z,2.03
2023-05-15T02:19:59.779Z,3.63
2023-05-15T02:22:26.967Z,3.33
2023-05-15T02:24:54.192Z,2.13
2023-05-15T02:27:29.590Z,1.85
2023-05-15T02:30:32.117Z,2.78
2023-05-15T02:33:09.664Z,3.10
2023-05-15T02:36:03.048Z,2.38
2023-05-15T02:38:45.029Z,2.38
2023-05-15T02:41:13.901Z,2.35
2023-05-15T02:43:42.258Z,2.90
2023-05-15T02:46:09.543Z,4.43
2023-05-15T02:48:40.024Z,3.05
2023-05-15T02:51:08.195Z,3.42
2023-05-15T02:53:40.887Z,3.88
2023-05-15T02:56:08.560Z,2.60
2023-05-15T02:58:36.278Z,3.47
2023-05-15T03:01:04.795Z,3.50
2023-05-15T03:03:32.224Z,2.95
2023-05-15T03:06:01.138Z,2.50
2023-05-15T03:08:28.837Z,3.40
2023-05-15T03:10:55.951Z,3.53
2023-05-15T03:13:23.092Z,3.10
2023-05-15T03:15:50.259Z,3.92
2023-05-15T03:18:19.139Z,2.72
2023-05-15T03:20:49.188Z,2.90
2023-05-15T03:23:16.487Z,1.55
2023-05-15T03:25:43.717Z,1.63
2023-05-15T03:28:11.766Z,2.45
2023-05-15T03:30:38.923Z,2.45
2023-05-15T03:33:06.837Z,2.35
2023-05-15T03:35:33.978Z,2.95
2023-05-15T03:38:01.307Z,2.80
2023-05-15T03:40:28.474Z,5.22
2023-05-15T03:42:55.670Z,3.30
2023-05-15T03:45:23.374Z,5.07
2023-05-15T03:47:50.809Z,4.57
2023-05-15T03:50:18.031Z,3.83
2023-05-15T03:52:45.208Z,6.60
2023-05-15T03:55:12.709Z,5.35
2023-05-15T03:57:41.800Z,5.57
2023-05-15T04:00:12.360Z,14.15
2023-05-15T04:02:41.158Z,15.77
2023-05-15T04:05:09.214Z,13.00
2023-05-15T04:07:37.682Z,11.15
2023-05-15T04:10:05.638Z,11.25
2023-05-15T04:12:35.043Z,12.07
2023-05-15T04:15:17.210Z,9.32
2023-05-15T04:17:46.019Z,9.10
2023-05-15T04:20:15.613Z,9.55
2023-05-15T04:22:44.022Z,7.10
2023-05-15T04:25:12.570Z,7.57
2023-05-15T04:27:40.063Z,8.95
2023-05-15T04:30:09.083Z,13.25
2023-05-15T04:32:37.566Z,12.82
2023-05-15T04:35:06.208Z,12.10
2023-05-15T04:37:33.268Z,9.30
2023-05-15T04:40:00.944Z,9.95
2023-05-15T04:42:29.560Z,10.75
2023-05-15T04:44:57.290Z,14.30
2023-05-15T04:47:24.669Z,13.77
2023-05-15T04:49:51.889Z,13.40
2023-05-15T04:52:19.004Z,10.10
2023-05-15T04:54:48.197Z,13.25
2023-05-15T04:57:15.428Z,12.35
2023-05-15T04:59:42.526Z,20.23
2023-05-15T05:02:10.744Z,17.13
2023-05-15T05:04:37.833Z,17.70
2023-05-15T05:07:06.097Z,15.73
2023-05-15T05:09:33.501Z,20.77
2023-05-15T05:12:02.020Z,17.15
2023-05-15T05:14:29.217Z,19.85
2023-05-15T05:16:56.455Z,18.88
2023-05-15T05:19:23.780Z,17.73
2023-05-15T05:21:51.035Z,21.00
2023-05-15T05:24:18.309Z,25.95
2023-05-15T05:26:45.648Z,21.13
2023-05-15T05:29:12.909Z,23.73
2023-05-15T05:31:40.086Z,26.65
2023-05-15T05:34:07.401Z,23.60
2023-05-15T05:36:34.932Z,24.33
2023-05-15T05:39:02.018Z,19.02
2023-05-15T05:41:29.373Z,20.35
2023-05-15T05:44:13.877Z,20.73
2023-05-15T05:46:41.169Z,17.20
2023-05-15T05:49:08.247Z,24.25
2023-05-15T05:51:39.386Z,28.42
2023-05-15T05:54:06.716Z,27.05
2023-05-15T05:56:33.837Z,19.75
2023-05-15T05:59:02.243Z,22.27
2023-05-15T06:01:29.705Z,20.50
2023-05-15T06:03:57.736Z,17.30
2023-05-15T06:06:25.120Z,17.23
2023-05-15T06:08:54.887Z,14.10
2023-05-15T06:11:25.447Z,14.57
2023-05-15T06:13:52.977Z,17.08
2023-05-15T06:16:20.369Z,16.63
2023-05-15T06:18:47.614Z,13.80
2023-05-15T06:21:14.899Z,13.48
2023-05-15T06:23:42.110Z,19.02
2023-05-15T06:26:09.414Z,16.77
2023-05-15T06:28:36.637Z,12.32
2023-05-15T06:31:03.960Z,10.15
2023-05-15T06:33:31.558Z,12.38
2023-05-15T06:35:59.050Z,15.48
2023-05-15T06:38:26.792Z,15.32
2023-05-15T06:40:54.080Z,19.05
2023-05-15T06:43:21.428Z,18.73
2023-05-15T06:45:50.619Z,18.25
2023-05-15T06:48:18.088Z,13.95
2023-05-15T06:50:45.379Z,11.65
2023-05-15T06:53:14.552Z,10.25
2023-05-15T06:55:41.845Z,9.93
2023-05-15T06:58:09.467Z,11.05
2023-05-15T07:00:36.770Z,9.45
2023-05-15T07:03:04.458Z,10.20
2023-05-15T07:05:31.745Z,10.25
2023-05-15T07:07:58.929Z,26.58
2023-05-15T07:10:27.744Z,41.30
2023-05-15T07:12:55.795Z,13.00
2023-05-15T07:15:23.022Z,12.90
2023-05-15T07:17:50.294Z,10.98
2023-05-15T07:20:17.541Z,7.65
2023-05-15T07:22:55.098Z,7.63
2023-05-15T07:25:25.464Z,8.40
2023-05-15T07:27:53.392Z,13.13
2023-05-15T07:30:20.838Z,12.15
2023-05-15T07:32:48.141Z,6.38
2023-05-15T07:35:15.424Z,4.45
2023-05-15T07:37:42.688Z,7.38
2023-05-15T07:40:12.351Z,6.65
2023-05-15T07:42:42.583Z,6.70
2023-05-15T07:45:10.288Z,6.35
2023-05-15T07:47:47.710Z,4.97
2023-05-15T07:50:15.844Z,5.55
2023-05-15T07:52:44.013Z,6.88
2023-05-15T07:55:12.290Z,7.35
2023-05-15T07:57:40.383Z,9.38
2023-05-15T08:00:12.214Z,9.02
2023-05-15T08:02:46.996Z,5.55
2023-05-15T08:05:14.294Z,6.28
2023-05-15T08:07:41.446Z,9.05
2023-05-15T08:13:49.873Z,7.47
2023-05-15T08:16:17.133Z,5.70
2023-05-15T08:18:44.455Z,4.88
2023-05-15T08:21:20.972Z,6.63
2023-05-15T08:23:48.024Z,5.43
2023-05-15T08:26:15.189Z,4.85
2023-05-15T08:28:42.442Z,3.58
2023-05-15T08:31:09.591Z,4.50
2023-05-15T08:33:36.827Z,5.07
2023-05-15T08:36:04.241Z,4.20
2023-05-15T08:38:31.893Z,7.80
2023-05-15T08:41:06.597Z,5.20
2023-05-15T08:43:37.469Z,4.82
2023-05-15T08:46:06.703Z,4.28
2023-05-15T08:48:40.238Z,3.50
2023-05-15T08:51:11.018Z,3.60
2023-05-15T08:53:38.765Z,4.45
2023-05-15T08:56:06.306Z,3.83
2023-05-15T08:58:34.199Z,5.22
2023-05-15T09:01:01.714Z,4.22
2023-05-15T09:03:29.050Z,7.07
2023-05-15T09:05:57.478Z,8.40
2023-05-15T09:08:27.137Z,5.70
2023-05-15T09:10:56.642Z,3.50
2023-05-15T09:13:23.813Z,4.18
2023-05-15T09:15:51.891Z,5.20
2023-05-15T09:18:19.367Z,6.18
2023-05-15T09:20:46.533Z,5.30
2023-05-15T09:23:27.657Z,4.57
2023-05-15T09:25:57.052Z,4.50
2023-05-15T09:28:30.140Z,3.10
2023-05-15T09:31:00.345Z,3.63
2023-05-15T09:33:41.789Z,3.72
2023-05-15T09:36:10.087Z,3.45
2023-05-15T09:38:42.949Z,3.60
2023-05-15T09:41:10.513Z,6.20
2023-05-15T09:43:39.277Z,2.65
2023-05-15T09:46:11.105Z,3.05
2023-05-15T09:48:39.328Z,3.70
2023-05-15T09:51:14.720Z,4.93
2023-05-15T09:53:41.992Z,2.65
2023-05-15T10:03:16.063Z,2.03
2023-05-15T10:05:44.499Z,2.38
2023-05-15T10:08:12.776Z,4.80
2023-05-15T10:11:05.943Z,3.97
2023-05-15T10:13:35.023Z,3.78
2023-05-15T10:16:03.789Z,5.00
2023-05-15T10:18:33.625Z,3.70
2023-05-15T10:21:15.421Z,3.70
2023-05-15T10:23:43.869Z,6.63
2023-05-15T10:26:30.190Z,6.45
2023-05-15T10:29:01.649Z,5.45
2023-05-15T10:31:30.360Z,4.03
2023-05-15T10:33:58.226Z,3.63
2023-05-15T10:36:25.814Z,7.10
2023-05-15T10:38:53.369Z,7.80
2023-05-15T10:41:22.564Z,6.13
2023-05-15T10:43:53.506Z,5.05
2023-05-15T10:46:21.888Z,4.60
2023-05-15T10:48:49.486Z,3.58
2023-05-15T10:51:18.759Z,6.35
2023-05-15T10:53:47.230Z,3.22
2023-05-15T10:56:17.421Z,5.43
2023-05-15T10:58:52.424Z,4.82
2023-05-15T11:01:34.254Z,2.65
2023-05-15T11:04:10.240Z,5.00
2023-05-15T11:06:39.223Z,3.00
2023-05-15T11:09:33.623Z,3.63
2023-05-15T11:12:09.755Z,6.10
2023-05-15T11:14:39.249Z,4.13
2023-05-15T11:17:15.690Z,3.83
2023-05-15T11:19:51.793Z,2.72
2023-05-15T11:22:29.048Z,4.68
2023-05-15T11:25:12.453Z,3.28
2023-05-15T11:27:41.170Z,2.97
2023-05-15T11:30:11.487Z,5.85
2023-05-15T11:32:42.839Z,4.65
2023-05-15T11:35:18.529Z,4.32
2023-05-15T11:37:54.323Z,2.67
2023-05-15T11:40:32.525Z,2.33
2023-05-15T11:43:18.857Z,5.57
2023-05-15T11:45:57.916Z,2.85
2023-05-15T11:48:28.635Z,4.47
2023-05-15T11:50:55.981Z,3.67
2023-05-15T11:53:24.372Z,2.50
2023-05-15T11:55:54.740Z,2.60
2023-05-15T11:58:23.446Z,4.65
2023-05-15T12:00:52.122Z,4.25
2023-05-15T12:03:25.022Z,4.68
2023-05-15T12:05:59.475Z,4.05
2023-05-15T12:08:33.218Z,3.90
2023-05-15T12:11:01.555Z,3.97
2023-05-15T12:13:28.886Z,2.85
2023-05-15T12:15:57.044Z,2.58
2023-05-15T12:18:24.747Z,8.55
2023-05-15T12:20:55.449Z,2.75
2023-05-15T12:23:24.506Z,2.22
2023-05-15T12:25:58.389Z,2.50
2023-05-15T12:28:27.063Z,3.53
2023-05-15T12:30:55.287Z,2.17
2023-05-15T12:33:23.559Z,2.90
2023-05-15T12:35:56.894Z,3.25
2023-05-15T12:38:27.002Z,3.15
2023-05-15T12:40:54.486Z,2.85
2023-05-15T12:43:25.408Z,2.30
2023-05-15T12:45:56.515Z,1.67
2023-05-15T12:48:29.187Z,2.38
2023-05-15T12:50:56.987Z,2.45
2023-05-15T12:53:24.128Z,3.70
2023-05-15T12:55:51.547Z,1.90
2023-05-15T12:58:19.452Z,3.40
2023-05-15T13:00:48.073Z,3.45
2023-05-15T13:03:16.087Z,12.23
2023-05-15T13:05:45.679Z,5.53
2023-05-15T13:08:18.851Z,2.53
2023-05-15T13:10:47.579Z,2.58
2023-05-15T13:13:15.316Z,4.75
2023-05-15T13:15:45.881Z,2.40
2023-05-15T13:18:15.574Z,3.20
2023-05-15T13:20:43.730Z,3.53
2023-05-15T13:23:19.184Z,4.32
2023-05-15T13:25:46.530Z,2.25
2023-05-15T13:28:14.129Z,3.35
2023-05-15T13:30:42.376Z,4.93
2023-05-15T13:33:10.909Z,2.75
2023-05-15T13:35:39.780Z,2.47
2023-05-15T13:38:10.364Z,3.15
2023-05-15T13:40:37.899Z,2.30
2023-05-15T13:43:06.894Z,3.92
2023-05-15T13:45:34.326Z,8.00
2023-05-15T13:48:01.695Z,5.85
2023-05-15T13:50:28.985Z,4.15
2023-05-15T13:52:56.507Z,10.75
2023-05-15T13:55:25.723Z,17.42
2023-05-15T13:57:53.444Z,7.28
2023-05-15T14:00:21.518Z,5.30
2023-05-15T14:02:48.806Z,4.68
2023-05-15T14:05:17.129Z,5.00
2023-05-15T14:07:44.294Z,4.85
2023-05-15T14:10:11.624Z,4.35
2023-05-15T14:12:38.929Z,3.40
2023-05-15T14:15:06.652Z,3.20
2023-05-15T14:17:33.804Z,3.28
2023-05-15T14:20:00.842Z,6.50
2023-05-15T14:22:27.912Z,3.30
2023-05-15T14:24:54.920Z,3.40
2023-05-15T14:27:22.100Z,3.80
2023-05-15T14:29:49.581Z,3.72
2023-05-15T14:32:17.169Z,2.75
2023-05-15T14:34:44.758Z,4.82
2023-05-15T14:37:11.970Z,4.53
2023-05-15T14:39:39.265Z,3.58
2023-05-15T14:42:06.676Z,4.72
2023-05-15T14:44:34.663Z,5.20
2023-05-15T14:47:10.606Z,3.45
2023-05-15T14:49:37.999Z,3.15
2023-05-15T14:52:07.169Z,4.90
2023-05-15T14:54:35.629Z,3.55
2023-05-15T14:57:03.748Z,3.15
2023-05-15T14:59:31.126Z,3.35
2023-05-15T15:01:58.362Z,3.78
2023-05-15T15:04:26.887Z,2.83
2023-05-15T15:06:57.222Z,3.38
2023-05-15T15:09:26.401Z,3.35
2023-05-15T15:11:54.950Z,5.07
2023-05-15T15:14:22.123Z,4.55
2023-05-15T15:16:49.342Z,5.15
2023-05-15T15:19:18.943Z,3.08
2023-05-15T15:21:47.245Z,2.67
2023-05-15T15:24:14.531Z,3.53
2023-05-15T15:26:41.691Z,3.13
2023-05-15T15:29:08.926Z,2.58
2023-05-15T15:31:36.110Z,3.42
2023-05-15T15:34:05.827Z,3.35
2023-05-15T15:36:33.228Z,4.03
2023-05-15T15:39:00.330Z,2.78
2023-05-15T15:41:30.629Z,3.55
2023-05-15T15:43:57.777Z,3.88
2023-05-15T15:46:25.315Z,5.60
2023-05-15T15:48:52.473Z,4.60
2023-05-15T15:51:19.563Z,4.90
2023-05-15T15:53:46.655Z,2.80
2023-05-15T15:56:13.880Z,3.85
2023-05-15T15:58:41.024Z,5.88
2023-05-15T16:01:08.189Z,11.80
2023-05-15T16:03:35.346Z,7.32
2023-05-15T16:06:02.459Z,4.72
2023-05-15T16:08:29.477Z,6.07
2023-05-15T16:10:56.710Z,8.95
2023-05-15T16:13:23.989Z,5.00
2023-05-15T16:15:51.020Z,5.22
2023-05-15T16:18:18.038Z,10.35
2023-05-15T16:20:45.091Z,10.25
2023-05-15T16:23:15.588Z,7.35
2023-05-15T16:25:44.658Z,7.70
2023-05-15T16:28:12.225Z,7.35
2023-05-15T16:30:48.984Z,7.43
2023-05-15T16:33:18.376Z,8.45
2023-05-15T16:35:46.429Z,8.80
2023-05-15T16:38:13.884Z,5.97
2023-05-15T16:40:41.053Z,10.48
2023-05-15T16:43:08.237Z,9.32
2023-05-15T16:45:35.576Z,16.15
2023-05-15T16:48:04.064Z,9.73
2023-05-15T16:50:39.847Z,16.10
2023-05-15T16:53:07.471Z,7.40
2023-05-15T16:55:34.889Z,10.88
2023-05-15T16:58:02.018Z,9.50
2023-05-15T17:00:29.191Z,11.65
2023-05-15T17:02:56.466Z,10.13
2023-05-15T17:05:23.698Z,12.05
2023-05-15T17:07:50.841Z,12.68
2023-05-15T17:10:20.398Z,13.30
2023-05-15T17:12:47.424Z,12.95
2023-05-15T17:15:14.553Z,18.73
2023-05-15T17:17:41.753Z,17.00
2023-05-15T17:20:09.545Z,12.45
2023-05-15T17:22:36.921Z,10.63
2023-05-15T17:25:04.657Z,16.77
2023-05-15T17:27:32.551Z,12.13
2023-05-15T17:29:59.591Z,7.80
2023-05-15T17:32:26.975Z,8.10
2023-05-15T17:34:54.153Z,8.45
2023-05-15T17:37:21.266Z,7.03
2023-05-15T17:39:48.813Z,6.60
2023-05-15T17:42:18.787Z,10.05
2023-05-15T17:44:49.133Z,7.78
2023-05-15T17:47:19.574Z,6.95
2023-05-15T17:49:50.368Z,10.10
2023-05-15T17:52:19.444Z,8.32
2023-05-15T17:54:49.509Z,6.47
2023-05-15T17:57:19.804Z,10.00
2023-05-15T17:59:48.719Z,8.32
2023-05-15T18:02:18.596Z,6.07
2023-05-15T18:04:48.525Z,7.60
2023-05-15T18:07:18.367Z,7.30
2023-05-15T18:09:46.065Z,5.97
2023-05-15T18:12:13.163Z,6.80
2023-05-15T18:14:40.567Z,64.05
2023-05-15T18:17:11.128Z,23.38
2023-05-15T18:19:41.201Z,10.32
2023-05-15T18:22:08.343Z,9.70
2023-05-15T18:24:38.067Z,8.60
2023-05-15T18:27:08.189Z,12.95
2023-05-15T18:29:36.030Z,8.07
2023-05-15T18:32:03.190Z,10.85
2023-05-15T18:34:30.499Z,8.18
2023-05-15T18:36:57.495Z,8.40
2023-05-15T18:39:24.528Z,7.60
2023-05-15T18:41:52.066Z,13.02
2023-05-15T18:44:19.034Z,17.60
2023-05-15T18:46:46.240Z,13.45
2023-05-15T18:49:13.337Z,13.15
2023-05-15T18:51:42.930Z,20.63
2023-05-15T18:54:10.281Z,15.82
2023-05-15T18:56:37.370Z,11.55
2023-05-15T18:59:04.449Z,8.85
2023-05-15T19:01:31.655Z,12.40
2023-05-15T19:03:58.845Z,13.48
2023-05-15T19:06:25.941Z,15.10
2023-05-15T19:08:53.327Z,13.90
2023-05-15T19:11:23.356Z,13.27
2023-05-15T19:13:53.378Z,13.48
2023-05-15T19:16:23.609Z,12.80
2023-05-15T19:18:53.538Z,12.45
2023-05-15T19:21:23.727Z,9.98
2023-05-15T19:23:51.359Z,9.50
2023-05-15T19:26:20.478Z,9.48
2023-05-15T19:28:49.833Z,7.70
2023-05-15T19:31:30.635Z,6.65
2023-05-15T19:33:59.223Z,8.07
2023-05-15T19:36:28.848Z,7.03
2023-05-15T19:38:59.000Z,7.20
2023-05-15T19:41:28.121Z,7.43
2023-05-15T19:43:57.067Z,6.85
2023-05-15T19:46:27.205Z,7.63
2023-05-15T19:48:57.013Z,10.85
2023-05-15T19:51:24.296Z,9.25
2023-05-15T19:53:54.733Z,12.85
2023-05-15T19:56:22.947Z,10.68
2023-05-15T19:58:50.535Z,10.18
2023-05-15T20:01:20.281Z,12.55
2023-05-15T20:03:50.096Z,12.60
2023-05-15T20:06:19.991Z,10.98
2023-05-15T20:08:50.786Z,9.45
2023-05-15T20:11:18.027Z,14.18
2023-05-15T20:13:45.976Z,14.25
2023-05-15T20:16:14.012Z,15.60
2023-05-15T20:18:41.869Z,14.73
2023-05-15T20:21:08.939Z,19.48
2023-05-15T20:23:36.165Z,14.77
2023-05-15T20:26:04.007Z,18.90
2023-05-15T20:28:31.492Z,16.83
2023-05-15T20:31:00.330Z,16.42
2023-05-15T20:33:27.762Z,27.95
2023-05-15T20:35:54.904Z,17.67
2023-05-15T20:38:35.942Z,19.58
2023-05-15T20:41:03.327Z,14.45
2023-05-15T20:43:37.475Z,13.70
2023-05-15T20:46:07.841Z,14.18
2023-05-15T20:48:34.989Z,15.80
2023-05-15T20:51:03.636Z,18.65
2023-05-15T20:53:33.259Z,13.48
2023-05-15T20:56:00.899Z,7.40
2023-05-15T20:58:31.027Z,5.97
2023-05-15T21:01:01.786Z,9.07
2023-05-15T21:03:29.986Z,5.90
2023-05-15T21:05:58.672Z,5.07
2023-05-15T21:08:27.930Z,3.80
2023-05-15T21:10:55.727Z,2.33
2023-05-15T21:13:22.815Z,2.40
2023-05-15T21:15:50.364Z,2.78
2023-05-15T21:18:18.999Z,3.17
2023-05-15T21:20:46.250Z,2.53
2023-05-15T21:23:13.641Z,2.47
2023-05-15T21:25:43.025Z,1.95
2023-05-15T21:28:10.937Z,2.45
2023-05-15T21:30:38.034Z,2.20
2023-05-15T21:33:05.165Z,1.77
2023-05-15T21:35:32.468Z,1.30
2023-05-15T21:37:59.847Z,1.92
2023-05-15T21:40:27.075Z,1.58
2023-05-15T21:42:54.354Z,2.67
2023-05-15T21:45:21.536Z,3.25
2023-05-15T21:47:48.676Z,2.30
2023-05-15T21:50:15.888Z,2.35
2023-05-15T21:52:43.114Z,2.20
2023-05-15T21:55:10.425Z,2.72
2023-05-15T21:57:37.509Z,3.75
2023-05-15T22:00:07.375Z,4.05
2023-05-15T22:02:35.245Z,5.95
2023-05-15T22:05:02.905Z,4.28
2023-05-15T22:07:30.189Z,5.07
2023-05-15T22:09:57.518Z,5.43
2023-05-15T22:12:24.685Z,4.72
2023-05-15T22:14:58.903Z,6.78
2023-05-15T22:17:27.457Z,6.10
2023-05-15T22:19:54.643Z,5.53
2023-05-15T22:22:21.739Z,4.80
2023-05-15T22:24:48.854Z,3.90
2023-05-15T22:27:17.439Z,5.82
2023-05-15T22:29:44.404Z,4.03
2023-05-15T22:32:11.373Z,3.95
2023-05-15T22:34:38.463Z,4.03
2023-05-15T22:37:06.375Z,3.22
2023-05-15T22:39:34.111Z,4.28
2023-05-15T22:42:01.145Z,3.47
2023-05-15T22:44:28.695Z,5.00
2023-05-15T22:46:55.967Z,3.67
2023-05-15T22:49:26.582Z,6.03
2023-05-15T22:51:55.833Z,2.90
2023-05-15T22:54:23.535Z,4.97
2023-05-15T22:56:54.481Z,3.10
2023-05-15T22:59:21.854Z,5.00
2023-05-15T23:01:49.595Z,3.85
2023-05-15T23:04:17.954Z,2.97
2023-05-15T23:06:45.328Z,3.17
2023-05-15T23:09:12.581Z,3.55
2023-05-15T23:11:39.607Z,3.33
2023-05-15T23:14:08.438Z,3.53
2023-05-15T23:16:35.998Z,4.28
2023-05-15T23:19:03.317Z,4.38
2023-05-15T23:21:30.459Z,2.20
2023-05-15T23:23:57.564Z,3.75
2023-05-15T23:26:24.624Z,2.58
2023-05-15T23:28:51.749Z,2.60
2023-05-15T23:31:18.801Z,3.03
2023-05-15T23:33:45.960Z,2.10
2023-05-15T23:36:13.090Z,2.25
2023-05-15T23:38:40.497Z,2.53
2023-05-15T23:41:07.513Z,2.88
2023-05-15T23:43:34.803Z,2.47
2023-05-15T23:46:01.889Z,1.50
2023-05-15T23:48:31.772Z,1.58
2023-05-15T23:50:58.893Z,1.55
2023-05-15T23:53:25.995Z,2.08
2023-05-15T23:55:53.277Z,1.50
2023-05-15T23:58:20.406Z,2.45
